Weather at London Gatwick Airport

Public forecast

Using degrees Celsius for public forecast. Weather courtesy of forecast.io.

Current aviation weather report (METAR) for London Gatwick Airport

Retrieved 2021/01/28 07:20 UTC (11 minutes ago):

EGKK 280720Z 23006KT 9999 SCT005 BKN009 11/10 Q1000

Aviation forecast (TAF) for London Gatwick Airport

Retrieved 2021/01/28 06:00 UTC (2 hours ago):

TAF EGKK 280501Z 2806/2912 24009KT 7000 SCT005 BKN010 BECMG 2806/2809 9999 SCT010 PROB30 TEMPO 2806/2809 4000 BR BKN004 PROB30 TEMPO 2808/2815 26015G25KT TEMPO 2819/2823 6000 RA BKN004 PROB30 TEMPO 2907/2912 6000 SHRA BKN012